sensor_id;sensor_type;location;lat;lon;timestamp;temperature;humidity
3300;DHT22;1662;49.310;8.134;2024-02-16T00:00:48;11.90;99.90
3300;DHT22;1662;49.310;8.134;2024-02-16T00:03:13;11.90;99.90
3300;DHT22;1662;49.310;8.134;2024-02-16T00:05:39;11.90;99.90
3300;DHT22;1662;49.310;8.134;2024-02-16T00:08:07;11.80;99.90
3300;DHT22;1662;49.310;8.134;2024-02-16T00:10:34;11.80;99.90
3300;DHT22;1662;49.310;8.134;2024-02-16T00:13:00;11.80;99.90
3300;DHT22;1662;49.310;8.134;2024-02-16T00:15:26;11.70;99.90
3300;DHT22;1662;49.310;8.134;2024-02-16T00:17:51;11.70;99.90
3300;DHT22;1662;49.310;8.134;2024-02-16T00:20:17;11.70;99.90
3300;DHT22;1662;49.310;8.134;2024-02-16T00:22:44;11.70;99.90
3300;DHT22;1662;49.310;8.134;2024-02-16T00:25:10;11.60;99.90
3300;DHT22;1662;49.310;8.134;2024-02-16T00:27:38;11.60;99.90
3300;DHT22;1662;49.310;8.134;2024-02-16T00:30:04;11.60;99.90
3300;DHT22;1662;49.310;8.134;2024-02-16T00:32:30;11.60;99.90
3300;DHT22;1662;49.310;8.134;2024-02-16T00:34:56;11.60;99.90
3300;DHT22;1662;49.310;8.134;2024-02-16T00:37:24;11.50;99.90
3300;DHT22;1662;49.310;8.134;2024-02-16T00:39:50;11.50;99.90
3300;DHT22;1662;49.310;8.134;2024-02-16T00:42:18;11.50;99.90
3300;DHT22;1662;49.310;8.134;2024-02-16T00:44:46;11.50;99.90
3300;DHT22;1662;49.310;8.134;2024-02-16T00:47:12;11.50;99.90
3300;DHT22;1662;49.310;8.134;2024-02-16T00:49:40;11.50;99.90
3300;DHT22;1662;49.310;8.134;2024-02-16T00:52:05;11.50;99.90
3300;DHT22;1662;49.310;8.134;2024-02-16T00:54:31;11.50;99.90
3300;DHT22;1662;49.310;8.134;2024-02-16T00:56:57;11.40;99.90
3300;DHT22;1662;49.310;8.134;2024-02-16T00:59:28;11.40;99.90
3300;DHT22;1662;49.310;8.134;2024-02-16T01:01:54;11.40;99.90
3300;DHT22;1662;49.310;8.134;2024-02-16T01:04:19;11.40;99.90
3300;DHT22;1662;49.310;8.134;2024-02-16T01:06:48;11.40;99.90
3300;DHT22;1662;49.310;8.134;2024-02-16T01:09:14;11.30;99.90
3300;DHT22;1662;49.310;8.134;2024-02-16T01:11:41;11.30;99.90
3300;DHT22;1662;49.310;8.134;2024-02-16T01:14:07;11.20;99.90
3300;DHT22;1662;49.310;8.134;2024-02-16T01:16:32;11.20;99.90
3300;DHT22;1662;49.310;8.134;2024-02-16T01:18:58;11.20;99.90
3300;DHT22;1662;49.310;8.134;2024-02-16T01:21:24;11.20;99.90
3300;DHT22;1662;49.310;8.134;2024-02-16T01:23:49;11.20;99.90
3300;DHT22;1662;49.310;8.134;2024-02-16T01:26:15;11.20;99.90
3300;DHT22;1662;49.310;8.134;2024-02-16T01:28:40;11.20;99.90
3300;DHT22;1662;49.310;8.134;2024-02-16T01:31:06;11.20;99.90
3300;DHT22;1662;49.310;8.134;2024-02-16T01:33:34;11.20;99.90
3300;DHT22;1662;49.310;8.134;2024-02-16T01:36:01;11.20;99.90
3300;DHT22;1662;49.310;8.134;2024-02-16T01:38:27;11.20;99.90
3300;DHT22;1662;49.310;8.134;2024-02-16T01:40:52;11.20;99.90
3300;DHT22;1662;49.310;8.134;2024-02-16T01:43:19;11.20;99.90
3300;DHT22;1662;49.310;8.134;2024-02-16T01:45:45;11.10;99.90
3300;DHT22;1662;49.310;8.134;2024-02-16T01:48:14;11.10;99.90
3300;DHT22;1662;49.310;8.134;2024-02-16T01:50:43;11.10;99.90
3300;DHT22;1662;49.310;8.134;2024-02-16T01:53:11;11.10;99.90
3300;DHT22;1662;49.310;8.134;2024-02-16T01:55:38;11.10;99.90
3300;DHT22;1662;49.310;8.134;2024-02-16T01:58:06;11.10;99.90
3300;DHT22;1662;49.310;8.134;2024-02-16T02:00:34;11.00;99.90
3300;DHT22;1662;49.310;8.134;2024-02-16T02:03:00;11.00;99.90
3300;DHT22;1662;49.310;8.134;2024-02-16T02:05:26;11.00;99.90
3300;DHT22;1662;49.310;8.134;2024-02-16T02:07:51;11.00;99.90
3300;DHT22;1662;49.310;8.134;2024-02-16T02:10:20;11.00;99.90
3300;DHT22;1662;49.310;8.134;2024-02-16T02:12:46;11.00;99.90
3300;DHT22;1662;49.310;8.134;2024-02-16T02:15:11;11.00;99.90
3300;DHT22;1662;49.310;8.134;2024-02-16T02:17:37;11.00;99.90
3300;DHT22;1662;49.310;8.134;2024-02-16T02:20:04;11.00;99.90
3300;DHT22;1662;49.310;8.134;2024-02-16T02:22:33;10.90;99.90
3300;DHT22;1662;49.310;8.134;2024-02-16T02:24:58;10.90;99.90
3300;DHT22;1662;49.310;8.134;2024-02-16T02:27:25;10.90;99.90
3300;DHT22;1662;49.310;8.134;2024-02-16T02:29:50;10.90;99.90
3300;DHT22;1662;49.310;8.134;2024-02-16T02:32:16;10.90;99.90
3300;DHT22;1662;49.310;8.134;2024-02-16T02:34:42;10.80;99.90
3300;DHT22;1662;49.310;8.134;2024-02-16T02:37:11;10.80;99.90
3300;DHT22;1662;49.310;8.134;2024-02-16T02:39:36;10.80;99.90
3300;DHT22;1662;49.310;8.134;2024-02-16T02:42:02;10.70;99.90
3300;DHT22;1662;49.310;8.134;2024-02-16T02:44:30;10.70;99.90
3300;DHT22;1662;49.310;8.134;2024-02-16T02:46:57;10.70;99.90
3300;DHT22;1662;49.310;8.134;2024-02-16T02:49:22;10.70;99.90
3300;DHT22;1662;49.310;8.134;2024-02-16T02:51:48;10.70;99.90
3300;DHT22;1662;49.310;8.134;2024-02-16T02:54:14;10.60;99.90
3300;DHT22;1662;49.310;8.134;2024-02-16T02:56:39;10.60;99.90
3300;DHT22;1662;49.310;8.134;2024-02-16T02:59:05;10.60;99.90
3300;DHT22;1662;49.310;8.134;2024-02-16T03:01:31;10.60;99.90
3300;DHT22;1662;49.310;8.134;2024-02-16T03:03:57;10.70;99.90
3300;DHT22;1662;49.310;8.134;2024-02-16T03:06:23;10.60;99.90
3300;DHT22;1662;49.310;8.134;2024-02-16T03:08:49;10.60;99.90
3300;DHT22;1662;49.310;8.134;2024-02-16T03:11:14;10.60;99.90
3300;DHT22;1662;49.310;8.134;2024-02-16T03:13:40;10.60;99.90
3300;DHT22;1662;49.310;8.134;2024-02-16T03:16:06;10.60;99.90
3300;DHT22;1662;49.310;8.134;2024-02-16T03:18:32;10.60;99.90
3300;DHT22;1662;49.310;8.134;2024-02-16T03:20:58;10.50;99.90
3300;DHT22;1662;49.310;8.134;2024-02-16T03:23:24;10.50;99.90
3300;DHT22;1662;49.310;8.134;2024-02-16T03:25:49;10.50;99.90
3300;DHT22;1662;49.310;8.134;2024-02-16T03:28:15;10.50;99.90
3300;DHT22;1662;49.310;8.134;2024-02-16T03:30:41;10.50;99.90
3300;DHT22;1662;49.310;8.134;2024-02-16T03:33:10;10.50;99.90
3300;DHT22;1662;49.310;8.134;2024-02-16T03:35:36;10.50;99.90
3300;DHT22;1662;49.310;8.134;2024-02-16T03:38:04;10.40;99.90
3300;DHT22;1662;49.310;8.134;2024-02-16T03:40:30;10.40;99.90
3300;DHT22;1662;49.310;8.134;2024-02-16T03:42:56;10.40;99.90
3300;DHT22;1662;49.310;8.134;2024-02-16T03:45:26;10.40;99.90
3300;DHT22;1662;49.310;8.134;2024-02-16T03:47:53;10.40;99.90
3300;DHT22;1662;49.310;8.134;2024-02-16T03:50:19;10.40;99.90
3300;DHT22;1662;49.310;8.134;2024-02-16T03:52:45;10.40;99.90
3300;DHT22;1662;49.310;8.134;2024-02-16T03:55:10;10.40;99.90
3300;DHT22;1662;49.310;8.134;2024-02-16T03:57:37;10.30;99.90
3300;DHT22;1662;49.310;8.134;2024-02-16T04:00:03;10.30;99.90
3300;DHT22;1662;49.310;8.134;2024-02-16T04:02:31;10.30;99.90
3300;DHT22;1662;49.310;8.134;2024-02-16T04:04:57;10.30;99.90
3300;DHT22;1662;49.310;8.134;2024-02-16T04:07:22;10.30;99.90
3300;DHT22;1662;49.310;8.134;2024-02-16T04:09:49;10.30;99.90
3300;DHT22;1662;49.310;8.134;2024-02-16T04:12:15;10.30;99.90
3300;DHT22;1662;49.310;8.134;2024-02-16T04:14:40;10.30;99.90
3300;DHT22;1662;49.310;8.134;2024-02-16T04:17:07;10.30;99.90
3300;DHT22;1662;49.310;8.134;2024-02-16T04:19:33;10.20;99.90
3300;DHT22;1662;49.310;8.134;2024-02-16T04:21:58;10.20;99.90
3300;DHT22;1662;49.310;8.134;2024-02-16T04:24:27;10.20;99.90
3300;DHT22;1662;49.310;8.134;2024-02-16T04:26:52;10.20;99.90
3300;DHT22;1662;49.310;8.134;2024-02-16T04:29:18;10.30;99.90
3300;DHT22;1662;49.310;8.134;2024-02-16T04:31:43;10.20;99.90
3300;DHT22;1662;49.310;8.134;2024-02-16T04:34:11;10.20;99.90
3300;DHT22;1662;49.310;8.134;2024-02-16T04:36:37;10.10;99.90
3300;DHT22;1662;49.310;8.134;2024-02-16T04:39:06;10.10;99.90
3300;DHT22;1662;49.310;8.134;2024-02-16T04:41:31;10.10;99.90
3300;DHT22;1662;49.310;8.134;2024-02-16T04:43:57;10.10;99.90
3300;DHT22;1662;49.310;8.134;2024-02-16T04:46:23;10.10;99.90
3300;DHT22;1662;49.310;8.134;2024-02-16T04:48:49;10.10;99.90
3300;DHT22;1662;49.310;8.134;2024-02-16T04:51:14;10.10;99.90
3300;DHT22;1662;49.310;8.134;2024-02-16T04:53:40;10.10;99.90
3300;DHT22;1662;49.310;8.134;2024-02-16T04:56:08;10.10;99.90
3300;DHT22;1662;49.310;8.134;2024-02-16T04:58:34;10.10;99.90
3300;DHT22;1662;49.310;8.134;2024-02-16T05:01:00;10.10;99.90
3300;DHT22;1662;49.310;8.134;2024-02-16T05:03:28;10.10;99.90
3300;DHT22;1662;49.310;8.134;2024-02-16T05:05:56;10.10;99.90
3300;DHT22;1662;49.310;8.134;2024-02-16T05:08:25;10.10;99.90
3300;DHT22;1662;49.310;8.134;2024-02-16T05:10:53;10.10;99.90
3300;DHT22;1662;49.310;8.134;2024-02-16T05:13:19;10.10;99.90
3300;DHT22;1662;49.310;8.134;2024-02-16T05:15:44;10.10;99.90
3300;DHT22;1662;49.310;8.134;2024-02-16T05:18:12;10.10;99.90
3300;DHT22;1662;49.310;8.134;2024-02-16T05:20:38;10.00;99.90
3300;DHT22;1662;49.310;8.134;2024-02-16T05:23:12;10.00;99.90
3300;DHT22;1662;49.310;8.134;2024-02-16T05:25:38;10.10;99.90
3300;DHT22;1662;49.310;8.134;2024-02-16T05:28:04;10.10;99.90
3300;DHT22;1662;49.310;8.134;2024-02-16T05:30:29;10.10;99.90
3300;DHT22;1662;49.310;8.134;2024-02-16T05:32:58;10.10;99.90
3300;DHT22;1662;49.310;8.134;2024-02-16T05:35:24;10.00;99.90
3300;DHT22;1662;49.310;8.134;2024-02-16T05:37:53;10.00;99.90
3300;DHT22;1662;49.310;8.134;2024-02-16T05:40:18;10.00;99.90
3300;DHT22;1662;49.310;8.134;2024-02-16T05:42:56;10.00;99.90
3300;DHT22;1662;49.310;8.134;2024-02-16T05:45:25;10.00;99.90
3300;DHT22;1662;49.310;8.134;2024-02-16T05:47:53;10.00;99.90
3300;DHT22;1662;49.310;8.134;2024-02-16T05:50:20;10.00;99.90
3300;DHT22;1662;49.310;8.134;2024-02-16T05:52:46;10.00;99.90
3300;DHT22;1662;49.310;8.134;2024-02-16T05:55:12;10.00;99.90
3300;DHT22;1662;49.310;8.134;2024-02-16T05:57:38;10.00;99.90
3300;DHT22;1662;49.310;8.134;2024-02-16T06:00:06;10.00;99.90
3300;DHT22;1662;49.310;8.134;2024-02-16T06:02:32;9.90;99.90
3300;DHT22;1662;49.310;8.134;2024-02-16T06:04:59;9.90;99.90
3300;DHT22;1662;49.310;8.134;2024-02-16T06:07:25;9.90;99.90
3300;DHT22;1662;49.310;8.134;2024-02-16T06:09:51;9.90;99.90
3300;DHT22;1662;49.310;8.134;2024-02-16T06:12:17;9.90;99.90
3300;DHT22;1662;49.310;8.134;2024-02-16T06:14:43;9.90;99.90
3300;DHT22;1662;49.310;8.134;2024-02-16T06:17:10;9.90;99.90
3300;DHT22;1662;49.310;8.134;2024-02-16T06:19:39;9.90;99.90
3300;DHT22;1662;49.310;8.134;2024-02-16T06:22:05;9.90;99.90
3300;DHT22;1662;49.310;8.134;2024-02-16T06:24:31;9.90;99.90
3300;DHT22;1662;49.310;8.134;2024-02-16T06:26:57;9.80;99.90
3300;DHT22;1662;49.310;8.134;2024-02-16T06:29:22;9.80;99.90
3300;DHT22;1662;49.310;8.134;2024-02-16T06:31:48;9.90;99.90
3300;DHT22;1662;49.310;8.134;2024-02-16T06:34:14;9.90;99.90
3300;DHT22;1662;49.310;8.134;2024-02-16T06:36:40;9.90;99.90
3300;DHT22;1662;49.310;8.134;2024-02-16T06:39:06;9.90;99.90
3300;DHT22;1662;49.310;8.134;2024-02-16T06:41:32;9.90;99.90
3300;DHT22;1662;49.310;8.134;2024-02-16T06:43:58;9.90;99.90
3300;DHT22;1662;49.310;8.134;2024-02-16T06:46:23;9.90;99.90
3300;DHT22;1662;49.310;8.134;2024-02-16T06:48:50;9.90;99.90
3300;DHT22;1662;49.310;8.134;2024-02-16T06:51:17;9.90;99.90
3300;DHT22;1662;49.310;8.134;2024-02-16T06:53:43;9.90;99.90
3300;DHT22;1662;49.310;8.134;2024-02-16T06:56:09;9.90;99.90
3300;DHT22;1662;49.310;8.134;2024-02-16T06:58:35;9.90;99.90
3300;DHT22;1662;49.310;8.134;2024-02-16T07:01:04;9.90;99.90
3300;DHT22;1662;49.310;8.134;2024-02-16T07:03:30;9.90;99.90
3300;DHT22;1662;49.310;8.134;2024-02-16T07:05:56;9.90;99.90
3300;DHT22;1662;49.310;8.134;2024-02-16T07:08:21;9.90;99.90
3300;DHT22;1662;49.310;8.134;2024-02-16T07:10:49;9.90;99.90
3300;DHT22;1662;49.310;8.134;2024-02-16T07:13:17;9.90;99.90
3300;DHT22;1662;49.310;8.134;2024-02-16T07:15:43;9.90;99.90
3300;DHT22;1662;49.310;8.134;2024-02-16T07:18:08;9.90;99.90
3300;DHT22;1662;49.310;8.134;2024-02-16T07:20:35;9.90;99.90
3300;DHT22;1662;49.310;8.134;2024-02-16T07:23:02;9.90;99.90
3300;DHT22;1662;49.310;8.134;2024-02-16T07:25:27;9.90;99.90
3300;DHT22;1662;49.310;8.134;2024-02-16T07:28:00;10.00;99.90
3300;DHT22;1662;49.310;8.134;2024-02-16T07:30:26;10.00;99.90
3300;DHT22;1662;49.310;8.134;2024-02-16T07:32:51;10.00;99.90
3300;DHT22;1662;49.310;8.134;2024-02-16T07:35:18;10.00;99.90
3300;DHT22;1662;49.310;8.134;2024-02-16T07:37:44;10.10;99.90
3300;DHT22;1662;49.310;8.134;2024-02-16T07:40:10;10.10;99.90
3300;DHT22;1662;49.310;8.134;2024-02-16T07:42:41;10.10;99.90
3300;DHT22;1662;49.310;8.134;2024-02-16T07:45:08;10.10;99.90
3300;DHT22;1662;49.310;8.134;2024-02-16T07:47:35;10.10;99.90
3300;DHT22;1662;49.310;8.134;2024-02-16T07:50:01;10.20;99.90
3300;DHT22;1662;49.310;8.134;2024-02-16T07:52:27;10.20;99.90
3300;DHT22;1662;49.310;8.134;2024-02-16T07:54:54;10.30;99.90
3300;DHT22;1662;49.310;8.134;2024-02-16T07:57:20;10.30;99.90
3300;DHT22;1662;49.310;8.134;2024-02-16T07:59:45;10.30;99.90
3300;DHT22;1662;49.310;8.134;2024-02-16T08:02:11;10.30;99.90
3300;DHT22;1662;49.310;8.134;2024-02-16T08:04:41;10.30;99.90
3300;DHT22;1662;49.310;8.134;2024-02-16T08:07:07;10.40;99.90
3300;DHT22;1662;49.310;8.134;2024-02-16T08:09:33;10.40;99.90
3300;DHT22;1662;49.310;8.134;2024-02-16T08:11:59;10.40;99.90
3300;DHT22;1662;49.310;8.134;2024-02-16T08:14:25;10.40;99.90
3300;DHT22;1662;49.310;8.134;2024-02-16T08:16:51;10.50;99.90
3300;DHT22;1662;49.310;8.134;2024-02-16T08:19:19;10.50;99.90
3300;DHT22;1662;49.310;8.134;2024-02-16T08:21:44;10.50;99.90
3300;DHT22;1662;49.310;8.134;2024-02-16T08:24:13;10.60;99.90
3300;DHT22;1662;49.310;8.134;2024-02-16T08:26:38;10.60;99.90
3300;DHT22;1662;49.310;8.134;2024-02-16T08:29:04;10.60;99.90
3300;DHT22;1662;49.310;8.134;2024-02-16T08:31:29;10.70;99.90
3300;DHT22;1662;49.310;8.134;2024-02-16T08:33:55;10.70;99.90
3300;DHT22;1662;49.310;8.134;2024-02-16T08:36:21;10.80;99.90
3300;DHT22;1662;49.310;8.134;2024-02-16T08:38:53;10.80;99.90
3300;DHT22;1662;49.310;8.134;2024-02-16T08:41:21;10.90;99.90
3300;DHT22;1662;49.310;8.134;2024-02-16T08:43:47;11.00;99.90
3300;DHT22;1662;49.310;8.134;2024-02-16T08:46:15;11.10;99.90
3300;DHT22;1662;49.310;8.134;2024-02-16T08:48:41;11.10;99.90
3300;DHT22;1662;49.310;8.134;2024-02-16T08:51:07;11.20;99.90
3300;DHT22;1662;49.310;8.134;2024-02-16T08:53:32;11.30;99.90
3300;DHT22;1662;49.310;8.134;2024-02-16T08:55:58;11.40;99.90
3300;DHT22;1662;49.310;8.134;2024-02-16T08:58:24;11.40;99.90
3300;DHT22;1662;49.310;8.134;2024-02-16T09:00:49;11.50;99.90
3300;DHT22;1662;49.310;8.134;2024-02-16T09:03:15;11.50;99.90
3300;DHT22;1662;49.310;8.134;2024-02-16T09:05:42;11.60;99.90
3300;DHT22;1662;49.310;8.134;2024-02-16T09:08:09;11.70;99.90
3300;DHT22;1662;49.310;8.134;2024-02-16T09:10:35;11.80;99.90
3300;DHT22;1662;49.310;8.134;2024-02-16T09:13:01;11.80;99.90
3300;DHT22;1662;49.310;8.134;2024-02-16T09:15:27;11.90;99.90
3300;DHT22;1662;49.310;8.134;2024-02-16T09:17:55;12.00;99.90
3300;DHT22;1662;49.310;8.134;2024-02-16T09:20:20;12.20;99.90
3300;DHT22;1662;49.310;8.134;2024-02-16T09:22:48;12.50;99.90
3300;DHT22;1662;49.310;8.134;2024-02-16T09:25:14;12.70;99.90
3300;DHT22;1662;49.310;8.134;2024-02-16T09:27:40;12.90;99.90
3300;DHT22;1662;49.310;8.134;2024-02-16T09:30:11;13.10;99.90
3300;DHT22;1662;49.310;8.134;2024-02-16T09:32:39;13.20;99.90
3300;DHT22;1662;49.310;8.134;2024-02-16T09:35:06;13.20;99.90
3300;DHT22;1662;49.310;8.134;2024-02-16T09:37:35;13.30;99.90
3300;DHT22;1662;49.310;8.134;2024-02-16T09:40:01;13.30;99.90
3300;DHT22;1662;49.310;8.134;2024-02-16T09:42:29;13.30;99.90
3300;DHT22;1662;49.310;8.134;2024-02-16T09:44:55;13.30;99.90
3300;DHT22;1662;49.310;8.134;2024-02-16T09:47:21;13.30;99.90
3300;DHT22;1662;49.310;8.134;2024-02-16T09:49:51;13.40;99.90
3300;DHT22;1662;49.310;8.134;2024-02-16T09:52:17;13.40;99.90
3300;DHT22;1662;49.310;8.134;2024-02-16T09:54:45;13.50;99.90
3300;DHT22;1662;49.310;8.134;2024-02-16T09:57:10;13.60;99.90
3300;DHT22;1662;49.310;8.134;2024-02-16T09:59:36;13.70;99.90
3300;DHT22;1662;49.310;8.134;2024-02-16T10:02:04;13.70;99.90
3300;DHT22;1662;49.310;8.134;2024-02-16T10:04:33;13.80;99.90
3300;DHT22;1662;49.310;8.134;2024-02-16T10:06:58;13.90;99.90
3300;DHT22;1662;49.310;8.134;2024-02-16T10:09:25;14.00;99.90
3300;DHT22;1662;49.310;8.134;2024-02-16T10:11:51;14.10;99.90
3300;DHT22;1662;49.310;8.134;2024-02-16T10:14:19;14.20;99.90
3300;DHT22;1662;49.310;8.134;2024-02-16T10:16:48;14.20;99.90
3300;DHT22;1662;49.310;8.134;2024-02-16T10:19:14;14.20;99.90
3300;DHT22;1662;49.310;8.134;2024-02-16T10:21:43;14.20;99.90
3300;DHT22;1662;49.310;8.134;2024-02-16T10:24:10;14.30;99.90
3300;DHT22;1662;49.310;8.134;2024-02-16T10:26:37;14.30;99.90
3300;DHT22;1662;49.310;8.134;2024-02-16T10:29:05;14.30;99.90
3300;DHT22;1662;49.310;8.134;2024-02-16T10:31:32;14.30;99.90
3300;DHT22;1662;49.310;8.134;2024-02-16T10:34:03;14.40;99.90
3300;DHT22;1662;49.310;8.134;2024-02-16T10:36:35;14.40;99.90
3300;DHT22;1662;49.310;8.134;2024-02-16T10:39:02;14.50;99.90
3300;DHT22;1662;49.310;8.134;2024-02-16T10:41:40;14.60;99.90
3300;DHT22;1662;49.310;8.134;2024-02-16T10:44:06;14.90;99.90
3300;DHT22;1662;49.310;8.134;2024-02-16T10:46:34;15.10;99.90
3300;DHT22;1662;49.310;8.134;2024-02-16T10:49:00;15.30;99.90
3300;DHT22;1662;49.310;8.134;2024-02-16T10:51:47;15.50;99.90
3300;DHT22;1662;49.310;8.134;2024-02-16T10:54:17;15.50;99.90
3300;DHT22;1662;49.310;8.134;2024-02-16T10:56:43;15.60;99.90
3300;DHT22;1662;49.310;8.134;2024-02-16T10:59:10;15.60;99.90
3300;DHT22;1662;49.310;8.134;2024-02-16T11:01:43;15.50;99.90
3300;DHT22;1662;49.310;8.134;2024-02-16T11:04:12;15.50;99.90
3300;DHT22;1662;49.310;8.134;2024-02-16T11:09:11;15.50;99.90
3300;DHT22;1662;49.310;8.134;2024-02-16T11:11:39;15.40;99.90
3300;DHT22;1662;49.310;8.134;2024-02-16T11:14:15;15.40;99.90
3300;DHT22;1662;49.310;8.134;2024-02-16T11:16:47;15.40;99.90
3300;DHT22;1662;49.310;8.134;2024-02-16T11:19:13;15.40;99.90
3300;DHT22;1662;49.310;8.134;2024-02-16T11:21:58;15.50;99.90
3300;DHT22;1662;49.310;8.134;2024-02-16T11:24:33;15.60;99.90
3300;DHT22;1662;49.310;8.134;2024-02-16T11:27:00;15.60;99.90
3300;DHT22;1662;49.310;8.134;2024-02-16T11:29:38;15.60;99.90
3300;DHT22;1662;49.310;8.134;2024-02-16T11:32:05;15.60;99.90
3300;DHT22;1662;49.310;8.134;2024-02-16T11:34:32;15.70;99.90
3300;DHT22;1662;49.310;8.134;2024-02-16T11:37:00;15.70;99.90
3300;DHT22;1662;49.310;8.134;2024-02-16T11:39:27;15.70;99.90
3300;DHT22;1662;49.310;8.134;2024-02-16T11:44:33;15.70;99.90
3300;DHT22;1662;49.310;8.134;2024-02-16T11:46:59;15.70;99.90
3300;DHT22;1662;49.310;8.134;2024-02-16T11:49:26;15.70;99.90
3300;DHT22;1662;49.310;8.134;2024-02-16T11:51:52;15.70;99.90
3300;DHT22;1662;49.310;8.134;2024-02-16T11:54:17;15.80;99.90
3300;DHT22;1662;49.310;8.134;2024-02-16T11:56:47;15.90;99.90
3300;DHT22;1662;49.310;8.134;2024-02-16T11:59:19;16.00;99.90
3300;DHT22;1662;49.310;8.134;2024-02-16T12:01:52;16.10;99.90
3300;DHT22;1662;49.310;8.134;2024-02-16T12:04:31;16.40;99.90
3300;DHT22;1662;49.310;8.134;2024-02-16T12:06:57;16.40;99.90
3300;DHT22;1662;49.310;8.134;2024-02-16T12:09:23;16.40;99.90
3300;DHT22;1662;49.310;8.134;2024-02-16T12:11:51;16.40;99.90
3300;DHT22;1662;49.310;8.134;2024-02-16T12:14:21;16.40;99.90
3300;DHT22;1662;49.310;8.134;2024-02-16T12:16:52;16.40;99.90
3300;DHT22;1662;49.310;8.134;2024-02-16T12:19:21;16.30;99.90
3300;DHT22;1662;49.310;8.134;2024-02-16T12:21:57;16.20;99.90
3300;DHT22;1662;49.310;8.134;2024-02-16T12:24:23;16.30;99.90
3300;DHT22;1662;49.310;8.134;2024-02-16T12:26:49;16.40;99.90
3300;DHT22;1662;49.310;8.134;2024-02-16T12:29:15;16.40;99.90
3300;DHT22;1662;49.310;8.134;2024-02-16T12:31:45;16.40;99.90
3300;DHT22;1662;49.310;8.134;2024-02-16T12:34:11;16.40;99.90
3300;DHT22;1662;49.310;8.134;2024-02-16T12:36:42;16.40;99.90
3300;DHT22;1662;49.310;8.134;2024-02-16T12:39:08;16.50;99.90
3300;DHT22;1662;49.310;8.134;2024-02-16T12:41:37;16.60;99.90
3300;DHT22;1662;49.310;8.134;2024-02-16T12:44:04;16.60;99.90
3300;DHT22;1662;49.310;8.134;2024-02-16T12:46:31;16.50;99.90
3300;DHT22;1662;49.310;8.134;2024-02-16T12:48:56;16.40;99.90
3300;DHT22;1662;49.310;8.134;2024-02-16T12:51:22;16.30;99.90
3300;DHT22;1662;49.310;8.134;2024-02-16T12:53:48;16.20;99.90
3300;DHT22;1662;49.310;8.134;2024-02-16T12:56:14;16.10;99.90
3300;DHT22;1662;49.310;8.134;2024-02-16T12:58:43;16.10;99.90
3300;DHT22;1662;49.310;8.134;2024-02-16T13:01:10;16.00;99.90
3300;DHT22;1662;49.310;8.134;2024-02-16T13:03:36;15.90;99.90
3300;DHT22;1662;49.310;8.134;2024-02-16T13:06:03;15.90;99.90
3300;DHT22;1662;49.310;8.134;2024-02-16T13:08:29;15.90;99.90
3300;DHT22;1662;49.310;8.134;2024-02-16T13:10:56;15.90;99.90
3300;DHT22;1662;49.310;8.134;2024-02-16T13:13:22;15.90;99.90
3300;DHT22;1662;49.310;8.134;2024-02-16T13:15:48;15.90;99.90
3300;DHT22;1662;49.310;8.134;2024-02-16T13:18:14;15.80;99.90
3300;DHT22;1662;49.310;8.134;2024-02-16T13:20:42;15.80;99.90
3300;DHT22;1662;49.310;8.134;2024-02-16T13:23:08;15.70;99.90
3300;DHT22;1662;49.310;8.134;2024-02-16T13:25:35;15.60;99.90
3300;DHT22;1662;49.310;8.134;2024-02-16T13:28:01;15.60;99.90
3300;DHT22;1662;49.310;8.134;2024-02-16T13:30:26;15.60;99.90
3300;DHT22;1662;49.310;8.134;2024-02-16T13:32:55;15.60;99.90
3300;DHT22;1662;49.310;8.134;2024-02-16T13:35:21;15.60;99.90
3300;DHT22;1662;49.310;8.134;2024-02-16T13:37:50;15.60;99.90
3300;DHT22;1662;49.310;8.134;2024-02-16T13:40:15;15.50;99.90
3300;DHT22;1662;49.310;8.134;2024-02-16T13:42:43;15.50;99.90
3300;DHT22;1662;49.310;8.134;2024-02-16T13:45:09;15.50;99.90
3300;DHT22;1662;49.310;8.134;2024-02-16T13:47:37;15.50;99.90
3300;DHT22;1662;49.310;8.134;2024-02-16T13:50:07;15.50;99.90
3300;DHT22;1662;49.310;8.134;2024-02-16T13:52:35;15.40;99.90
3300;DHT22;1662;49.310;8.134;2024-02-16T13:55:01;15.40;99.90
3300;DHT22;1662;49.310;8.134;2024-02-16T13:57:27;15.40;99.90
3300;DHT22;1662;49.310;8.134;2024-02-16T13:59:52;15.30;99.90
3300;DHT22;1662;49.310;8.134;2024-02-16T14:02:18;15.30;99.90
3300;DHT22;1662;49.310;8.134;2024-02-16T14:04:47;15.30;99.90
3300;DHT22;1662;49.310;8.134;2024-02-16T14:07:14;15.30;99.90
3300;DHT22;1662;49.310;8.134;2024-02-16T14:09:40;15.30;99.90
3300;DHT22;1662;49.310;8.134;2024-02-16T14:12:05;15.30;99.90
3300;DHT22;1662;49.310;8.134;2024-02-16T14:14:31;15.30;99.90
3300;DHT22;1662;49.310;8.134;2024-02-16T14:16:57;15.20;99.90
3300;DHT22;1662;49.310;8.134;2024-02-16T14:19:24;15.20;99.90
3300;DHT22;1662;49.310;8.134;2024-02-16T14:21:50;15.20;99.90
3300;DHT22;1662;49.310;8.134;2024-02-16T14:24:19;15.20;99.90
3300;DHT22;1662;49.310;8.134;2024-02-16T14:26:46;15.20;99.90
3300;DHT22;1662;49.310;8.134;2024-02-16T14:29:11;15.20;99.90
3300;DHT22;1662;49.310;8.134;2024-02-16T14:31:37;15.10;99.90
3300;DHT22;1662;49.310;8.134;2024-02-16T14:34:02;15.10;99.90
3300;DHT22;1662;49.310;8.134;2024-02-16T14:36:28;15.10;99.90
3300;DHT22;1662;49.310;8.134;2024-02-16T14:38:53;15.00;99.90
3300;DHT22;1662;49.310;8.134;2024-02-16T14:41:19;15.00;99.90
3300;DHT22;1662;49.310;8.134;2024-02-16T14:43:45;15.00;99.90
3300;DHT22;1662;49.310;8.134;2024-02-16T14:46:12;15.00;99.90
3300;DHT22;1662;49.310;8.134;2024-02-16T14:48:40;14.90;99.90
3300;DHT22;1662;49.310;8.134;2024-02-16T14:51:06;15.00;99.90
3300;DHT22;1662;49.310;8.134;2024-02-16T14:53:34;15.00;99.90
3300;DHT22;1662;49.310;8.134;2024-02-16T14:56:00;14.90;99.90
3300;DHT22;1662;49.310;8.134;2024-02-16T14:58:28;14.90;99.90
3300;DHT22;1662;49.310;8.134;2024-02-16T15:00:54;14.90;99.90
3300;DHT22;1662;49.310;8.134;2024-02-16T15:03:22;14.90;99.90
3300;DHT22;1662;49.310;8.134;2024-02-16T15:05:50;14.90;99.90
3300;DHT22;1662;49.310;8.134;2024-02-16T15:08:16;14.90;99.90
3300;DHT22;1662;49.310;8.134;2024-02-16T15:10:42;14.90;99.90
3300;DHT22;1662;49.310;8.134;2024-02-16T15:13:08;14.90;99.90
3300;DHT22;1662;49.310;8.134;2024-02-16T15:15:37;14.90;99.90
3300;DHT22;1662;49.310;8.134;2024-02-16T15:18:03;14.80;99.90
3300;DHT22;1662;49.310;8.134;2024-02-16T15:20:29;14.80;99.90
3300;DHT22;1662;49.310;8.134;2024-02-16T15:22:56;14.80;99.90
3300;DHT22;1662;49.310;8.134;2024-02-16T15:25:23;14.80;99.90
3300;DHT22;1662;49.310;8.134;2024-02-16T15:27:49;14.80;99.90
3300;DHT22;1662;49.310;8.134;2024-02-16T15:30:16;14.70;99.90
3300;DHT22;1662;49.310;8.134;2024-02-16T15:32:41;14.70;99.90
3300;DHT22;1662;49.310;8.134;2024-02-16T15:35:07;14.70;99.90
3300;DHT22;1662;49.310;8.134;2024-02-16T15:37:36;14.70;99.90
3300;DHT22;1662;49.310;8.134;2024-02-16T15:40:02;14.70;99.90
3300;DHT22;1662;49.310;8.134;2024-02-16T15:42:28;14.70;99.90
3300;DHT22;1662;49.310;8.134;2024-02-16T15:45:00;14.70;99.90
3300;DHT22;1662;49.310;8.134;2024-02-16T15:47:27;14.70;99.90
3300;DHT22;1662;49.310;8.134;2024-02-16T15:49:53;14.70;99.90
3300;DHT22;1662;49.310;8.134;2024-02-16T15:52:21;14.60;99.90
3300;DHT22;1662;49.310;8.134;2024-02-16T15:54:47;14.60;99.90
3300;DHT22;1662;49.310;8.134;2024-02-16T15:57:12;14.50;99.90
3300;DHT22;1662;49.310;8.134;2024-02-16T15:59:38;14.50;99.90
3300;DHT22;1662;49.310;8.134;2024-02-16T16:02:03;14.50;99.90
3300;DHT22;1662;49.310;8.134;2024-02-16T16:04:30;14.50;99.90